createdAt,value
2022-08-01T00:00:19.232Z,100520.31
2022-08-01T00:02:45.949Z,100517.66
2022-08-01T00:05:13.039Z,100525.47
2022-08-01T00:07:39.879Z,100519.16
2022-08-01T00:10:09.622Z,100522.72
2022-08-01T00:12:37.691Z,100530.53
2022-08-01T00:15:06.502Z,100521.66
2022-08-01T00:17:33.647Z,100523.84
2022-08-01T00:20:00.707Z,100516.25
2022-08-01T00:22:27.560Z,100519.72
2022-08-01T00:24:54.273Z,100521.53
2022-08-01T00:27:21.786Z,100520.75
2022-08-01T00:30:11.662Z,100520.72
2022-08-01T00:32:35.256Z,100530.72
2022-08-01T00:35:02.000Z,100527.72
2022-08-01T00:37:30.097Z,100533.31
2022-08-01T00:39:56.724Z,100531.03
2022-08-01T00:42:23.443Z,100529.47
2022-08-01T00:44:50.082Z,100528.75
2022-08-01T00:47:16.943Z,100532.72
2022-08-01T00:49:43.977Z,100535.38
2022-08-01T00:52:11.477Z,100529.97
2022-08-01T00:54:38.406Z,100530.97
2022-08-01T00:57:09.866Z,100527.22
2022-08-01T00:59:37.427Z,100529.16
2022-08-01T01:02:04.556Z,100529.16
2022-08-01T01:04:41.227Z,100537.56
2022-08-01T01:07:12.154Z,100534.91
2022-08-01T01:09:58.874Z,100532.84
2022-08-01T01:12:35.932Z,100536.44
2022-08-01T01:15:14.359Z,100533.50
2022-08-01T01:18:07.841Z,100540.06
2022-08-01T01:20:39.946Z,100538.56
2022-08-01T01:23:45.116Z,100538.47
2022-08-01T01:26:32.681Z,100540.41
2022-08-01T01:29:29.350Z,100536.97
2022-08-01T01:32:10.685Z,100540.06
2022-08-01T01:34:40.903Z,100537.97
2022-08-01T01:37:11.895Z,100539.06
2022-08-01T01:39:41.502Z,100543.16
2022-08-01T01:42:12.247Z,100544.28
2022-08-01T01:44:42.500Z,100541.03
2022-08-01T01:47:10.017Z,100550.25
2022-08-01T01:49:37.778Z,100553.41
2022-08-01T01:52:05.437Z,100558.59
2022-08-01T01:54:37.228Z,100562.59
2022-08-01T01:57:06.799Z,100561.94
2022-08-01T01:59:37.136Z,100562.22
2022-08-01T02:02:06.979Z,100560.28
2022-08-01T02:04:38.727Z,100561.56
2022-08-01T02:07:08.236Z,100559.38
2022-08-01T02:09:36.663Z,100557.84
2022-08-01T02:12:07.808Z,100545.50
2022-08-01T02:14:56.957Z,100553.16
2022-08-01T02:17:25.633Z,100570.94
2022-08-01T02:19:54.545Z,100560.66
2022-08-01T02:22:28.609Z,100570.78
2022-08-01T02:25:25.185Z,100568.66
2022-08-01T02:28:08.098Z,100564.28
2022-08-01T02:30:37.827Z,100572.88
2022-08-01T02:33:15.808Z,100564.88
2022-08-01T02:36:30.244Z,100578.03
2022-08-01T02:38:37.213Z,100570.75
2022-08-01T02:41:19.520Z,100569.34
2022-08-01T02:43:53.502Z,100567.66
2022-08-01T02:46:30.679Z,100564.34
2022-08-01T02:49:01.628Z,100565.78
2022-08-01T02:51:31.003Z,100561.53
2022-08-01T02:53:59.895Z,100565.91
2022-08-01T02:56:35.584Z,100564.81
2022-08-01T02:59:07.004Z,100557.09
2022-08-01T03:01:37.248Z,100563.94
2022-08-01T03:04:06.189Z,100562.56
2022-08-01T03:06:34.672Z,100569.66
2022-08-01T03:09:03.765Z,100568.50
2022-08-01T03:11:31.709Z,100568.09
2022-08-01T03:14:02.529Z,100570.28
2022-08-01T03:16:32.378Z,100571.56
2022-08-01T03:19:02.255Z,100563.59
2022-08-01T03:21:30.280Z,100560.88
2022-08-01T03:24:00.525Z,100560.66
2022-08-01T03:26:29.668Z,100559.00
2022-08-01T03:28:59.973Z,100564.97
2022-08-01T03:31:28.762Z,100560.63
2022-08-01T03:33:55.616Z,100563.75
2022-08-01T03:36:27.593Z,100560.06
2022-08-01T03:38:58.992Z,100558.25
2022-08-01T03:41:41.797Z,100559.72
2022-08-01T03:44:14.352Z,100560.00
2022-08-01T03:46:57.343Z,100561.44
2022-08-01T03:49:30.615Z,100561.88
2022-08-01T03:51:59.642Z,100567.56
2022-08-01T03:54:35.727Z,100563.28
2022-08-01T03:57:03.358Z,100564.50
2022-08-01T03:59:31.263Z,100564.53
2022-08-01T04:01:59.382Z,100564.22
2022-08-01T04:04:26.884Z,100565.34
2022-08-01T04:06:54.952Z,100567.38
2022-08-01T04:09:25.498Z,100564.22
2022-08-01T04:11:52.227Z,100558.03
2022-08-01T04:14:18.974Z,100551.41
2022-08-01T04:16:45.706Z,100561.31
2022-08-01T04:19:13.227Z,100564.56
2022-08-01T04:21:39.971Z,100562.16
2022-08-01T04:24:17.562Z,100573.59
2022-08-01T04:26:46.394Z,100577.09
2022-08-01T04:29:15.176Z,100572.78
2022-08-01T04:31:46.355Z,100579.75
2022-08-01T04:34:16.706Z,100573.31
2022-08-01T04:36:45.200Z,100576.19
2022-08-01T04:39:13.057Z,100579.41
2022-08-01T04:41:40.820Z,100585.72
2022-08-01T04:44:07.801Z,100585.25
2022-08-01T04:46:37.775Z,100581.28
2022-08-01T04:49:07.995Z,100582.50
2022-08-01T04:51:35.338Z,100595.91
2022-08-01T04:54:02.220Z,100588.81
2022-08-01T04:56:28.927Z,100587.84
2022-08-01T04:59:19.624Z,100589.78
2022-08-01T05:01:51.561Z,100585.91
2022-08-01T05:04:18.493Z,100590.94
2022-08-01T05:06:45.136Z,100598.56
2022-08-01T05:09:11.811Z,100594.13
2022-08-01T05:11:38.516Z,100591.44
2022-08-01T05:14:05.230Z,100590.13
2022-08-01T05:16:31.904Z,100594.16
2022-08-01T05:18:58.564Z,100592.69
2022-08-01T05:21:25.275Z,100589.19
2022-08-01T05:23:51.949Z,100593.69
2022-08-01T05:26:18.577Z,100586.44
2022-08-01T05:28:45.243Z,100593.53
2022-08-01T05:31:12.155Z,100602.88
2022-08-01T05:33:38.855Z,100603.38
2022-08-01T05:36:05.851Z,100598.38
2022-08-01T05:38:32.623Z,100596.25
2022-08-01T05:40:59.418Z,100601.19
2022-08-01T05:43:28.994Z,100603.50
2022-08-01T05:45:57.594Z,100614.38
2022-08-01T05:48:35.940Z,100616.13
2022-08-01T05:51:03.535Z,100607.59
2022-08-01T05:53:30.415Z,100604.06
2022-08-01T05:56:00.169Z,100606.16
2022-08-01T05:58:26.865Z,100610.00
2022-08-01T06:00:53.603Z,100612.38
2022-08-01T06:03:20.359Z,100613.16
2022-08-01T06:05:47.130Z,100613.16
2022-08-01T06:08:13.756Z,100616.00
2022-08-01T06:10:40.471Z,100615.63
2022-08-01T06:13:07.564Z,100618.03
2022-08-01T06:15:34.633Z,100619.78
2022-08-01T06:18:01.732Z,100615.50
2022-08-01T06:20:28.731Z,100621.00
2022-08-01T06:22:55.713Z,100624.56
2022-08-01T06:25:23.493Z,100622.25
2022-08-01T06:27:50.694Z,100619.28
2022-08-01T06:30:17.534Z,100624.94
2022-08-01T06:32:44.260Z,100625.41
2022-08-01T06:35:10.977Z,100626.50
2022-08-01T06:37:37.941Z,100627.94
2022-08-01T06:40:14.739Z,100637.72
2022-08-01T06:42:45.083Z,100635.44
2022-08-01T06:45:13.217Z,100634.97
2022-08-01T06:47:41.207Z,100636.09
2022-08-01T06:50:09.847Z,100640.06
2022-08-01T06:52:38.711Z,100641.47
2022-08-01T06:55:05.965Z,100638.16
2022-08-01T06:57:33.718Z,100640.28
2022-08-01T07:00:07.439Z,100643.81
2022-08-01T07:02:34.327Z,100639.16
2022-08-01T07:05:01.383Z,100644.44
2022-08-01T07:07:32.062Z,100649.31
2022-08-01T07:09:58.870Z,100657.84
2022-08-01T07:12:25.522Z,100660.47
2022-08-01T07:14:52.255Z,100650.28
2022-08-01T07:17:21.446Z,100654.41
2022-08-01T07:19:48.809Z,100641.72
2022-08-01T07:22:23.139Z,100647.56
2022-08-01T07:24:54.504Z,100642.72
2022-08-01T07:27:25.813Z,100639.56
2022-08-01T07:29:55.851Z,100630.50
2022-08-01T07:32:22.968Z,100627.34
2022-08-01T07:34:49.763Z,100632.97
2022-08-01T07:37:16.433Z,100632.69
2022-08-01T07:39:44.868Z,100623.81
2022-08-01T07:42:11.734Z,100625.97
2022-08-01T07:44:45.597Z,100631.59
2022-08-01T07:47:12.336Z,100628.31
2022-08-01T07:49:41.046Z,100626.69
2022-08-01T07:52:08.932Z,100627.81
2022-08-01T07:54:35.706Z,100621.66
2022-08-01T07:57:03.948Z,100628.25
2022-08-01T07:59:31.036Z,100628.34
2022-08-01T08:01:57.973Z,100634.56
2022-08-01T08:04:24.786Z,100630.31
2022-08-01T08:06:51.956Z,100628.50
2022-08-01T08:09:18.753Z,100627.69
2022-08-01T08:11:48.064Z,100634.38
2022-08-01T08:14:16.601Z,100640.06
2022-08-01T08:16:44.205Z,100635.09
2022-08-01T08:19:11.278Z,100636.66
2022-08-01T08:21:38.732Z,100641.66
2022-08-01T08:24:26.814Z,100635.09
2022-08-01T08:27:01.867Z,100630.78
2022-08-01T08:29:30.804Z,100630.78
2022-08-01T08:31:57.781Z,100632.81
2022-08-01T08:34:25.014Z,100634.84
2022-08-01T08:36:52.705Z,100636.81
2022-08-01T08:39:20.394Z,100627.91
2022-08-01T08:41:49.482Z,100636.50
2022-08-01T08:44:18.407Z,100631.41
2022-08-01T08:46:47.582Z,100625.16
2022-08-01T08:49:18.845Z,100635.38
2022-08-01T08:51:49.324Z,100633.38
2022-08-01T08:54:16.328Z,100622.81
2022-08-01T08:56:45.023Z,100629.44
2022-08-01T08:59:14.344Z,100626.34
2022-08-01T09:01:42.527Z,100629.72
2022-08-01T09:04:10.487Z,100633.94
2022-08-01T09:06:37.250Z,100629.97
2022-08-01T09:09:05.036Z,100625.28
2022-08-01T09:11:32.033Z,100630.97
2022-08-01T09:14:14.715Z,100627.22
2022-08-01T09:16:48.906Z,100628.22
2022-08-01T09:19:39.666Z,100624.09
2022-08-01T09:22:09.937Z,100638.06
2022-08-01T09:24:37.683Z,100635.69
2022-08-01T09:27:21.637Z,100638.94
2022-08-01T09:30:00.430Z,100636.75
2022-08-01T09:32:35.983Z,100650.66
2022-08-01T09:35:30.707Z,100649.56
2022-08-01T09:38:18.372Z,100645.28
2022-08-01T09:40:46.980Z,100647.31
2022-08-01T09:43:17.628Z,100646.75
2022-08-01T09:45:45.817Z,100637.72
2022-08-01T09:48:19.300Z,100644.22
2022-08-01T09:50:48.053Z,100640.44
2022-08-01T09:53:30.338Z,100648.50
2022-08-01T09:56:12.885Z,100643.56
2022-08-01T09:59:02.009Z,100646.50
2022-08-01T10:01:41.989Z,100645.16
2022-08-01T10:04:12.479Z,100638.63
2022-08-01T10:06:41.659Z,100649.75
2022-08-01T10:09:08.853Z,100645.81
2022-08-01T10:11:39.972Z,100640.69
2022-08-01T10:14:08.322Z,100645.66
2022-08-01T10:16:38.376Z,100635.13
2022-08-01T10:19:14.613Z,100631.47
2022-08-01T10:21:58.449Z,100641.00
2022-08-01T10:24:29.158Z,100626.06
2022-08-01T10:27:08.068Z,100628.47
2022-08-01T10:30:19.405Z,100629.75
2022-08-01T10:32:53.498Z,100619.94
2022-08-01T10:35:45.548Z,100616.47
2022-08-01T10:38:13.447Z,100616.31
2022-08-01T10:40:42.998Z,100621.13
2022-08-01T10:43:15.241Z,100621.22
2022-08-01T10:45:49.995Z,100625.63
2022-08-01T10:48:29.742Z,100621.41
2022-08-01T10:51:00.871Z,100614.94
2022-08-01T10:53:31.172Z,100611.06
2022-08-01T10:56:02.770Z,100606.09
2022-08-01T10:58:42.503Z,100613.31
2022-08-01T11:01:16.004Z,100615.75
2022-08-01T11:04:02.228Z,100614.50
2022-08-01T11:06:35.113Z,100610.75
2022-08-01T11:09:12.437Z,100611.69
2022-08-01T11:12:23.259Z,100611.59
2022-08-01T11:15:02.881Z,100611.38
2022-08-01T11:17:37.245Z,100607.19
2022-08-01T11:20:06.103Z,100604.72
2022-08-01T11:23:00.431Z,100609.44
2022-08-01T11:26:03.076Z,100607.72
2022-08-01T11:28:36.546Z,100595.47
2022-08-01T11:31:10.995Z,100590.22
2022-08-01T11:33:48.654Z,100600.78
2022-08-01T11:36:32.206Z,100589.06
2022-08-01T11:39:13.673Z,100584.19
2022-08-01T11:41:42.192Z,100585.06
2022-08-01T11:44:30.512Z,100573.88
2022-08-01T11:47:00.293Z,100578.25
2022-08-01T11:49:41.638Z,100572.22
2022-08-01T11:52:11.121Z,100569.91
2022-08-01T11:55:05.488Z,100572.38
2022-08-01T11:57:39.013Z,100575.75
2022-08-01T12:00:16.704Z,100574.31
2022-08-01T12:02:46.143Z,100572.16
2022-08-01T12:05:17.334Z,100570.53
2022-08-01T12:07:47.151Z,100569.16
2022-08-01T12:10:21.877Z,100564.34
2022-08-01T12:12:55.037Z,100569.81
2022-08-01T12:15:25.051Z,100565.25
2022-08-01T12:17:58.885Z,100565.38
2022-08-01T12:20:31.183Z,100570.28
2022-08-01T12:23:01.970Z,100569.47
2022-08-01T12:25:29.679Z,100565.38
2022-08-01T12:28:01.384Z,100559.50
2022-08-01T12:30:29.420Z,100550.88
2022-08-01T12:32:56.230Z,100552.22
2022-08-01T12:35:26.460Z,100556.53
2022-08-01T12:38:01.076Z,100542.00
2022-08-01T12:40:33.452Z,100536.84
2022-08-01T12:43:03.671Z,100543.16
2022-08-01T12:45:38.530Z,100558.09
2022-08-01T12:48:09.914Z,100546.34
2022-08-01T12:50:39.275Z,100554.34
2022-08-01T12:53:07.283Z,100548.75
2022-08-01T12:55:34.871Z,100547.03
2022-08-01T12:58:15.410Z,100546.00
2022-08-01T13:00:46.087Z,100543.22
2022-08-01T13:03:18.053Z,100536.34
2022-08-01T13:05:55.723Z,100538.44
2022-08-01T13:08:38.826Z,100536.88
2022-08-01T13:11:09.658Z,100535.25
2022-08-01T13:13:43.427Z,100537.22
2022-08-01T13:16:15.592Z,100527.19
2022-08-01T13:18:57.571Z,100528.88
2022-08-01T13:21:28.853Z,100528.78
2022-08-01T13:24:04.284Z,100536.03
2022-08-01T13:26:50.503Z,100533.84
2022-08-01T13:29:21.701Z,100533.09
2022-08-01T13:31:49.044Z,100519.81
2022-08-01T13:34:16.586Z,100524.69
2022-08-01T13:36:49.160Z,100525.81
2022-08-01T13:39:35.687Z,100525.31
2022-08-01T13:42:02.552Z,100520.16
2022-08-01T13:44:29.838Z,100526.28
2022-08-01T13:46:56.971Z,100520.03
2022-08-01T13:49:24.387Z,100530.16
2022-08-01T13:51:51.633Z,100525.75
2022-08-01T13:54:19.486Z,100525.09
2022-08-01T13:56:46.692Z,100528.19
2022-08-01T13:59:13.991Z,100525.91
2022-08-01T14:01:40.857Z,100522.41
2022-08-01T14:04:07.861Z,100520.06
2022-08-01T14:06:35.938Z,100519.78
2022-08-01T14:09:04.223Z,100515.78
2022-08-01T14:11:45.838Z,100507.09
2022-08-01T14:14:13.889Z,100511.78
2022-08-01T14:16:40.732Z,100508.19
2022-08-01T14:19:07.548Z,100502.91
2022-08-01T14:21:34.371Z,100505.75
2022-08-01T14:24:01.268Z,100497.00
2022-08-01T14:26:28.612Z,100500.03
2022-08-01T14:28:55.359Z,100498.50
2022-08-01T14:31:22.028Z,100502.31
2022-08-01T14:33:48.790Z,100501.78
2022-08-01T14:36:30.394Z,100503.69
2022-08-01T14:39:00.310Z,100505.63
2022-08-01T14:41:31.130Z,100509.47
2022-08-01T14:43:58.484Z,100496.91
2022-08-01T14:46:25.284Z,100499.50
2022-08-01T14:48:52.930Z,100497.53
2022-08-01T14:51:19.656Z,100505.03
2022-08-01T14:53:46.502Z,100497.66
2022-08-01T14:56:13.975Z,100490.13
2022-08-01T14:58:40.707Z,100492.34
2022-08-01T15:01:07.474Z,100498.13
2022-08-01T15:03:34.310Z,100496.63
2022-08-01T15:06:01.374Z,100486.88
2022-08-01T15:08:28.460Z,100494.97
2022-08-01T15:10:55.234Z,100490.38
2022-08-01T15:13:21.942Z,100486.50
2022-08-01T15:15:48.947Z,100488.06
2022-08-01T15:18:15.963Z,100486.81
2022-08-01T15:20:43.052Z,100489.28
2022-08-01T15:23:10.314Z,100490.91
2022-08-01T15:25:40.843Z,100490.41
2022-08-01T15:28:10.589Z,100495.00
2022-08-01T15:30:37.922Z,100483.06
2022-08-01T15:33:04.747Z,100492.22
2022-08-01T15:35:31.508Z,100497.75
2022-08-01T15:37:58.368Z,100499.53
2022-08-01T15:40:25.341Z,100496.72
2022-08-01T15:42:53.184Z,100505.38
2022-08-01T15:45:45.970Z,100493.56
2022-08-01T15:48:08.864Z,100484.59
2022-08-01T15:50:38.556Z,100488.84
2022-08-01T15:53:05.772Z,100486.56
2022-08-01T15:55:32.612Z,100491.16
2022-08-01T15:57:59.289Z,100503.81
2022-08-01T16:00:32.662Z,100490.66
2022-08-01T16:03:00.520Z,100490.28
2022-08-01T16:05:27.327Z,100484.75
2022-08-01T16:07:59.442Z,100497.63
2022-08-01T16:10:29.207Z,100506.00
2022-08-01T16:12:55.988Z,100494.16
2022-08-01T16:15:23.147Z,100503.88
2022-08-01T16:18:03.504Z,100501.91
2022-08-01T16:20:30.248Z,100506.13
2022-08-01T16:22:56.908Z,100502.25
2022-08-01T16:25:23.709Z,100502.69
2022-08-01T16:27:50.453Z,100495.22
2022-08-01T16:30:17.216Z,100501.03
2022-08-01T16:32:46.936Z,100491.31
2022-08-01T16:35:22.670Z,100495.53
2022-08-01T16:37:51.235Z,100496.75
2022-08-01T16:40:18.200Z,100495.50
2022-08-01T16:42:45.616Z,100488.91
2022-08-01T16:45:14.363Z,100480.00
2022-08-01T16:47:42.100Z,100483.31
2022-08-01T16:50:11.810Z,100489.03
2022-08-01T16:52:41.639Z,100484.41
2022-08-01T16:55:10.087Z,100488.78
2022-08-01T16:57:38.519Z,100484.47
2022-08-01T17:00:21.366Z,100480.38
2022-08-01T17:02:49.538Z,100490.25
2022-08-01T17:05:16.599Z,100494.88
2022-08-01T17:07:43.322Z,100489.47
2022-08-01T17:10:10.310Z,100496.22
2022-08-01T17:12:39.354Z,100497.84
2022-08-01T17:15:09.874Z,100491.59
2022-08-01T17:17:36.653Z,100504.97
2022-08-01T17:20:04.109Z,100497.56
2022-08-01T17:22:30.825Z,100498.66
2022-08-01T17:24:57.586Z,100495.88
2022-08-01T17:27:24.275Z,100491.97
2022-08-01T17:29:51.072Z,100491.69
2022-08-01T17:32:17.973Z,100496.84
2022-08-01T17:34:44.696Z,100500.34
2022-08-01T17:37:11.661Z,100497.22
2022-08-01T17:39:39.907Z,100501.28
2022-08-01T17:42:09.103Z,100504.34
2022-08-01T17:44:35.945Z,100509.69
2022-08-01T17:47:05.235Z,100516.19
2022-08-01T17:49:54.315Z,100513.41
2022-08-01T17:52:19.156Z,100521.25
2022-08-01T17:54:45.884Z,100522.22
2022-08-01T17:57:13.735Z,100520.34
2022-08-01T17:59:40.965Z,100527.28
2022-08-01T18:02:07.703Z,100515.13
2022-08-01T18:04:35.855Z,100521.47
2022-08-01T18:07:11.544Z,100521.38
2022-08-01T18:09:42.393Z,100520.13
2022-08-01T18:12:13.437Z,100517.28
2022-08-01T18:14:41.281Z,100520.41
2022-08-01T18:17:11.422Z,100523.25
2022-08-01T18:19:39.393Z,100526.03
2022-08-01T18:22:14.484Z,100524.19
2022-08-01T18:24:53.887Z,100529.50
2022-08-01T18:27:20.620Z,100525.81
2022-08-01T18:29:48.720Z,100525.34
2022-08-01T18:32:15.822Z,100528.19
2022-08-01T18:34:42.791Z,100531.56
2022-08-01T18:37:12.196Z,100533.13
2022-08-01T18:39:41.431Z,100530.56
2022-08-01T18:42:10.648Z,100532.59
2022-08-01T18:44:37.631Z,100537.53
2022-08-01T18:47:04.966Z,100550.53
2022-08-01T18:49:32.159Z,100552.41
2022-08-01T18:51:59.392Z,100552.50
2022-08-01T18:54:27.276Z,100552.94
2022-08-01T18:56:54.068Z,100557.09
2022-08-01T18:59:21.802Z,100561.91
2022-08-01T19:01:49.339Z,100558.75
2022-08-01T19:04:16.628Z,100573.78
2022-08-01T19:06:43.440Z,100579.19
2022-08-01T19:09:14.342Z,100581.72
2022-08-01T19:11:47.455Z,100581.16
2022-08-01T19:14:14.333Z,100596.31
2022-08-01T19:16:41.210Z,100594.38
2022-08-01T19:19:09.706Z,100602.41
2022-08-01T19:21:44.317Z,100593.81
2022-08-01T19:24:23.091Z,100599.31
2022-08-01T19:26:54.045Z,100598.59
2022-08-01T19:29:23.250Z,100611.16
2022-08-01T19:31:51.136Z,100606.34
2022-08-01T19:34:24.785Z,100608.06
2022-08-01T19:36:58.754Z,100613.47
2022-08-01T19:39:29.819Z,100616.31
2022-08-01T19:41:59.302Z,100612.56
2022-08-01T19:44:28.710Z,100604.38
2022-08-01T19:46:55.841Z,100605.41
2022-08-01T19:49:23.829Z,100610.44
2022-08-01T19:52:01.220Z,100608.50
2022-08-01T19:54:34.525Z,100610.59
2022-08-01T19:57:03.453Z,100610.47
2022-08-01T19:59:33.104Z,100615.03
2022-08-01T20:02:00.724Z,100617.78
2022-08-01T20:04:28.251Z,100621.72
2022-08-01T20:06:56.581Z,100624.91
2022-08-01T20:09:23.362Z,100632.84
2022-08-01T20:11:54.447Z,100630.31
2022-08-01T20:14:24.101Z,100635.84
2022-08-01T20:16:53.084Z,100635.38
2022-08-01T20:19:21.535Z,100635.59
2022-08-01T20:22:03.988Z,100630.50
2022-08-01T20:24:39.519Z,100632.91
2022-08-01T20:27:09.419Z,100642.59
2022-08-01T20:29:37.289Z,100641.31
2022-08-01T20:32:05.358Z,100640.13
2022-08-01T20:34:39.120Z,100645.81
2022-08-01T20:37:12.478Z,100648.44
2022-08-01T20:39:44.313Z,100644.81
2022-08-01T20:42:13.197Z,100639.59
2022-08-01T20:44:41.415Z,100644.31
2022-08-01T20:47:09.119Z,100642.69
2022-08-01T20:49:37.277Z,100641.25
2022-08-01T20:52:11.918Z,100656.31
2022-08-01T20:54:41.050Z,100652.34
2022-08-01T20:57:26.858Z,100650.44
2022-08-01T21:00:02.392Z,100659.97
2022-08-01T21:02:47.845Z,100658.91
2022-08-01T21:05:29.976Z,100659.69
2022-08-01T21:08:05.652Z,100662.13
2022-08-01T21:10:33.340Z,100668.00
2022-08-01T21:13:08.665Z,100666.44
2022-08-01T21:16:22.058Z,100665.81
2022-08-01T21:18:58.260Z,100666.22
2022-08-01T21:21:35.644Z,100673.81
2022-08-01T21:24:10.341Z,100676.31
2022-08-01T21:26:37.191Z,100674.16
2022-08-01T21:29:07.424Z,100675.88
2022-08-01T21:31:38.715Z,100675.97
2022-08-01T21:34:08.148Z,100677.84
2022-08-01T21:36:36.479Z,100674.88
2022-08-01T21:39:05.825Z,100675.44
2022-08-01T21:41:56.001Z,100680.31
2022-08-01T21:44:20.042Z,100679.22
2022-08-01T21:46:48.184Z,100680.44
2022-08-01T21:49:15.257Z,100687.03
2022-08-01T21:51:51.858Z,100688.88
2022-08-01T21:54:37.540Z,100694.38
2022-08-01T21:57:12.754Z,100695.91
2022-08-01T21:59:59.633Z,100696.78
2022-08-01T22:02:40.903Z,100701.69
2022-08-01T22:05:13.804Z,100695.44
2022-08-01T22:07:56.679Z,100691.81
2022-08-01T22:10:24.795Z,100700.16
2022-08-01T22:12:52.961Z,100693.78
2022-08-01T22:15:25.110Z,100703.66
2022-08-01T22:18:10.806Z,100707.94
2022-08-01T22:20:37.887Z,100710.66
2022-08-01T22:23:06.461Z,100708.19
2022-08-01T22:25:33.518Z,100709.34
2022-08-01T22:28:06.569Z,100704.81
2022-08-01T22:30:43.771Z,100715.34
2022-08-01T22:33:16.026Z,100710.50
2022-08-01T22:35:48.721Z,100722.00
2022-08-01T22:38:18.035Z,100724.41
2022-08-01T22:40:49.059Z,100714.06
2022-08-01T22:43:30.567Z,100711.41
2022-08-01T22:46:22.605Z,100709.44
2022-08-01T22:48:58.369Z,100706.34
2022-08-01T22:51:54.946Z,100700.53
2022-08-01T22:54:30.031Z,100713.09
2022-08-01T22:56:59.896Z,100708.09
2022-08-01T22:59:55.748Z,100715.69
2022-08-01T23:02:22.534Z,100711.59
2022-08-01T23:04:50.286Z,100708.38
2022-08-01T23:07:23.444Z,100709.66
2022-08-01T23:09:53.873Z,100717.72
2022-08-01T23:12:27.264Z,100707.84
2022-08-01T23:14:56.417Z,100708.31
2022-08-01T23:17:29.822Z,100710.94
2022-08-01T23:20:02.283Z,100718.94
2022-08-01T23:22:32.507Z,100708.19
2022-08-01T23:25:03.917Z,100713.06
2022-08-01T23:27:51.776Z,100705.72
2022-08-01T23:30:27.227Z,100711.31
2022-08-01T23:32:55.226Z,100706.66
2022-08-01T23:35:22.436Z,100711.06
2022-08-01T23:37:51.011Z,100703.22
2022-08-01T23:40:18.556Z,100697.31
2022-08-01T23:42:45.605Z,100695.72
2022-08-01T23:45:14.880Z,100695.91
2022-08-01T23:47:41.676Z,100698.84
2022-08-01T23:50:08.929Z,100702.41
2022-08-01T23:52:48.149Z,100698.38
2022-08-01T23:55:15.783Z,100700.00
2022-08-01T23:57:42.980Z,100706.97
